sensor_id;sensor_type;location;lat;lon;timestamp;P1;durP1;ratioP1;P2;durP2;ratioP2
30770;SDS011;17502;51.698;-0.292;2022-10-31T00:01:11;24.25;;;2.40;;
30770;SDS011;17502;51.698;-0.292;2022-10-31T00:03:37;5.88;;;1.75;;
30770;SDS011;17502;51.698;-0.292;2022-10-31T00:06:03;3.78;;;1.10;;
30770;SDS011;17502;51.698;-0.292;2022-10-31T00:08:29;5.03;;;1.48;;
30770;SDS011;17502;51.698;-0.292;2022-10-31T00:10:55;5.07;;;1.52;;
30770;SDS011;17502;51.698;-0.292;2022-10-31T00:13:21;7.07;;;1.67;;
30770;SDS011;17502;51.698;-0.292;2022-10-31T00:15:47;6.88;;;1.65;;
30770;SDS011;17502;51.698;-0.292;2022-10-31T00:18:13;1.85;;;0.85;;
30770;SDS011;17502;51.698;-0.292;2022-10-31T00:20:39;7.10;;;1.67;;
30770;SDS011;17502;51.698;-0.292;2022-10-31T00:23:06;12.13;;;2.28;;
30770;SDS011;17502;51.698;-0.292;2022-10-31T00:25:33;9.73;;;1.90;;
30770;SDS011;17502;51.698;-0.292;2022-10-31T00:28:00;8.60;;;2.22;;
30770;SDS011;17502;51.698;-0.292;2022-10-31T00:30:26;19.40;;;2.83;;
30770;SDS011;17502;51.698;-0.292;2022-10-31T00:32:52;6.18;;;2.00;;
30770;SDS011;17502;51.698;-0.292;2022-10-31T00:35:18;8.40;;;2.58;;
30770;SDS011;17502;51.698;-0.292;2022-10-31T00:37:44;6.35;;;2.13;;
30770;SDS011;17502;51.698;-0.292;2022-10-31T00:40:10;4.05;;;1.63;;
30770;SDS011;17502;51.698;-0.292;2022-10-31T00:42:37;7.57;;;2.08;;
30770;SDS011;17502;51.698;-0.292;2022-10-31T00:45:03;4.25;;;1.95;;
30770;SDS011;17502;51.698;-0.292;2022-10-31T00:47:29;12.90;;;1.77;;
30770;SDS011;17502;51.698;-0.292;2022-10-31T00:49:55;8.00;;;2.25;;
30770;SDS011;17502;51.698;-0.292;2022-10-31T00:52:21;2.95;;;1.88;;
30770;SDS011;17502;51.698;-0.292;2022-10-31T00:54:47;3.70;;;1.70;;
30770;SDS011;17502;51.698;-0.292;2022-10-31T00:57:13;4.07;;;1.58;;
30770;SDS011;17502;51.698;-0.292;2022-10-31T00:59:39;6.40;;;2.28;;
30770;SDS011;17502;51.698;-0.292;2022-10-31T01:02:05;27.30;;;2.75;;
30770;SDS011;17502;51.698;-0.292;2022-10-31T01:04:31;8.10;;;2.40;;
30770;SDS011;17502;51.698;-0.292;2022-10-31T01:06:57;5.13;;;1.50;;
30770;SDS011;17502;51.698;-0.292;2022-10-31T01:09:23;22.92;;;2.42;;
30770;SDS011;17502;51.698;-0.292;2022-10-31T01:11:49;10.98;;;1.73;;
30770;SDS011;17502;51.698;-0.292;2022-10-31T01:14:15;4.43;;;1.35;;
30770;SDS011;17502;51.698;-0.292;2022-10-31T01:16:41;1.90;;;1.10;;
30770;SDS011;17502;51.698;-0.292;2022-10-31T01:19:07;12.35;;;1.38;;
30770;SDS011;17502;51.698;-0.292;2022-10-31T01:21:33;7.80;;;1.38;;
30770;SDS011;17502;51.698;-0.292;2022-10-31T01:23:59;10.52;;;1.67;;
30770;SDS011;17502;51.698;-0.292;2022-10-31T01:26:28;2.45;;;1.45;;
30770;SDS011;17502;51.698;-0.292;2022-10-31T01:28:59;12.43;;;1.55;;
30770;SDS011;17502;51.698;-0.292;2022-10-31T01:31:26;7.45;;;2.00;;
30770;SDS011;17502;51.698;-0.292;2022-10-31T01:33:53;23.13;;;2.13;;
30770;SDS011;17502;51.698;-0.292;2022-10-31T01:36:23;5.13;;;2.42;;
30770;SDS011;17502;51.698;-0.292;2022-10-31T01:38:51;5.32;;;1.33;;
30770;SDS011;17502;51.698;-0.292;2022-10-31T01:41:18;3.38;;;1.80;;
30770;SDS011;17502;51.698;-0.292;2022-10-31T01:43:49;5.00;;;1.08;;
30770;SDS011;17502;51.698;-0.292;2022-10-31T01:46:16;8.30;;;1.35;;
30770;SDS011;17502;51.698;-0.292;2022-10-31T01:48:43;14.50;;;1.73;;
30770;SDS011;17502;51.698;-0.292;2022-10-31T01:51:09;3.53;;;1.25;;
30770;SDS011;17502;51.698;-0.292;2022-10-31T01:53:37;5.82;;;1.52;;
30770;SDS011;17502;51.698;-0.292;2022-10-31T01:56:04;11.40;;;1.60;;
30770;SDS011;17502;51.698;-0.292;2022-10-31T01:58:30;7.35;;;1.15;;
30770;SDS011;17502;51.698;-0.292;2022-10-31T02:00:58;10.05;;;2.00;;
30770;SDS011;17502;51.698;-0.292;2022-10-31T02:03:25;17.25;;;1.42;;
30770;SDS011;17502;51.698;-0.292;2022-10-31T02:05:55;4.40;;;1.40;;
30770;SDS011;17502;51.698;-0.292;2022-10-31T02:08:23;11.45;;;1.35;;
30770;SDS011;17502;51.698;-0.292;2022-10-31T02:10:51;3.42;;;2.67;;
30770;SDS011;17502;51.698;-0.292;2022-10-31T02:13:17;6.05;;;1.42;;
30770;SDS011;17502;51.698;-0.292;2022-10-31T02:15:44;6.80;;;1.40;;
30770;SDS011;17502;51.698;-0.292;2022-10-31T02:18:12;9.82;;;1.38;;
30770;SDS011;17502;51.698;-0.292;2022-10-31T02:20:44;19.15;;;2.75;;
30770;SDS011;17502;51.698;-0.292;2022-10-31T02:23:38;9.45;;;1.30;;
30770;SDS011;17502;51.698;-0.292;2022-10-31T02:34:15;3.25;;;1.40;;
30770;SDS011;17502;51.698;-0.292;2022-10-31T02:36:47;10.13;;;1.58;;
30770;SDS011;17502;51.698;-0.292;2022-10-31T02:47:14;3.83;;;1.42;;
30770;SDS011;17502;51.698;-0.292;2022-10-31T02:52:30;7.20;;;2.13;;
30770;SDS011;17502;51.698;-0.292;2022-10-31T02:54:57;3.13;;;2.00;;
30770;SDS011;17502;51.698;-0.292;2022-10-31T02:57:30;13.10;;;1.55;;
30770;SDS011;17502;51.698;-0.292;2022-10-31T03:00:00;13.93;;;1.90;;
30770;SDS011;17502;51.698;-0.292;2022-10-31T03:07:38;6.80;;;1.10;;
30770;SDS011;17502;51.698;-0.292;2022-10-31T03:15:48;8.05;;;2.00;;
30770;SDS011;17502;51.698;-0.292;2022-10-31T03:20:42;12.85;;;2.15;;
30770;SDS011;17502;51.698;-0.292;2022-10-31T03:23:12;7.65;;;1.90;;
30770;SDS011;17502;51.698;-0.292;2022-10-31T03:25:39;6.20;;;1.88;;
30770;SDS011;17502;51.698;-0.292;2022-10-31T03:28:06;16.05;;;1.95;;
30770;SDS011;17502;51.698;-0.292;2022-10-31T03:30:33;17.30;;;4.00;;
30770;SDS011;17502;51.698;-0.292;2022-10-31T03:33:02;7.50;;;1.75;;
30770;SDS011;17502;51.698;-0.292;2022-10-31T03:35:29;8.32;;;2.50;;
30770;SDS011;17502;51.698;-0.292;2022-10-31T03:37:57;10.57;;;3.13;;
30770;SDS011;17502;51.698;-0.292;2022-10-31T03:40:24;8.10;;;2.08;;
30770;SDS011;17502;51.698;-0.292;2022-10-31T03:43:03;4.25;;;1.90;;
30770;SDS011;17502;51.698;-0.292;2022-10-31T03:45:32;9.55;;;1.67;;
30770;SDS011;17502;51.698;-0.292;2022-10-31T03:48:01;12.90;;;2.28;;
30770;SDS011;17502;51.698;-0.292;2022-10-31T03:50:29;8.27;;;2.20;;
30770;SDS011;17502;51.698;-0.292;2022-10-31T03:55:25;12.38;;;3.20;;
30770;SDS011;17502;51.698;-0.292;2022-10-31T04:00:38;6.47;;;1.90;;
30770;SDS011;17502;51.698;-0.292;2022-10-31T04:03:10;5.38;;;1.65;;
30770;SDS011;17502;51.698;-0.292;2022-10-31T04:05:37;9.60;;;2.15;;
30770;SDS011;17502;51.698;-0.292;2022-10-31T04:08:04;8.50;;;2.30;;
30770;SDS011;17502;51.698;-0.292;2022-10-31T04:10:31;7.63;;;3.00;;
30770;SDS011;17502;51.698;-0.292;2022-10-31T04:13:00;7.97;;;1.90;;
30770;SDS011;17502;51.698;-0.292;2022-10-31T04:15:27;11.35;;;1.67;;
30770;SDS011;17502;51.698;-0.292;2022-10-31T04:17:55;6.35;;;2.30;;
30770;SDS011;17502;51.698;-0.292;2022-10-31T04:20:29;9.80;;;2.55;;
30770;SDS011;17502;51.698;-0.292;2022-10-31T04:22:55;5.20;;;2.63;;
30770;SDS011;17502;51.698;-0.292;2022-10-31T04:25:21;4.25;;;1.98;;
30770;SDS011;17502;51.698;-0.292;2022-10-31T04:27:47;9.00;;;2.38;;
30770;SDS011;17502;51.698;-0.292;2022-10-31T04:30:13;8.13;;;3.33;;
30770;SDS011;17502;51.698;-0.292;2022-10-31T04:32:39;6.75;;;2.40;;
30770;SDS011;17502;51.698;-0.292;2022-10-31T04:35:06;5.82;;;2.75;;
30770;SDS011;17502;51.698;-0.292;2022-10-31T04:37:32;14.35;;;3.25;;
30770;SDS011;17502;51.698;-0.292;2022-10-31T04:39:58;12.18;;;3.28;;
30770;SDS011;17502;51.698;-0.292;2022-10-31T04:42:24;9.77;;;2.47;;
30770;SDS011;17502;51.698;-0.292;2022-10-31T04:44:50;10.45;;;2.20;;
30770;SDS011;17502;51.698;-0.292;2022-10-31T04:47:16;21.67;;;3.13;;
30770;SDS011;17502;51.698;-0.292;2022-10-31T04:49:42;9.18;;;2.88;;
30770;SDS011;17502;51.698;-0.292;2022-10-31T04:52:08;13.07;;;2.58;;
30770;SDS011;17502;51.698;-0.292;2022-10-31T04:54:34;7.63;;;2.40;;
30770;SDS011;17502;51.698;-0.292;2022-10-31T04:57:00;9.60;;;2.45;;
30770;SDS011;17502;51.698;-0.292;2022-10-31T04:59:26;8.27;;;2.00;;
30770;SDS011;17502;51.698;-0.292;2022-10-31T05:01:52;5.93;;;2.40;;
30770;SDS011;17502;51.698;-0.292;2022-10-31T05:04:18;8.45;;;2.80;;
30770;SDS011;17502;51.698;-0.292;2022-10-31T05:06:44;10.63;;;2.83;;
30770;SDS011;17502;51.698;-0.292;2022-10-31T05:09:10;12.20;;;3.13;;
30770;SDS011;17502;51.698;-0.292;2022-10-31T05:11:36;15.18;;;3.20;;
30770;SDS011;17502;51.698;-0.292;2022-10-31T05:14:02;15.20;;;2.72;;
30770;SDS011;17502;51.698;-0.292;2022-10-31T05:16:28;12.68;;;3.47;;
30770;SDS011;17502;51.698;-0.292;2022-10-31T05:18:54;11.35;;;2.33;;
30770;SDS011;17502;51.698;-0.292;2022-10-31T05:21:20;14.23;;;2.17;;
30770;SDS011;17502;51.698;-0.292;2022-10-31T05:23:46;10.52;;;2.78;;
30770;SDS011;17502;51.698;-0.292;2022-10-31T05:26:12;3.92;;;2.20;;
30770;SDS011;17502;51.698;-0.292;2022-10-31T05:28:38;15.75;;;2.42;;
30770;SDS011;17502;51.698;-0.292;2022-10-31T05:31:04;18.42;;;2.72;;
30770;SDS011;17502;51.698;-0.292;2022-10-31T05:33:30;5.07;;;2.33;;
30770;SDS011;17502;51.698;-0.292;2022-10-31T05:35:56;10.65;;;2.72;;
30770;SDS011;17502;51.698;-0.292;2022-10-31T05:38:22;10.32;;;2.63;;
30770;SDS011;17502;51.698;-0.292;2022-10-31T05:40:48;6.28;;;2.63;;
30770;SDS011;17502;51.698;-0.292;2022-10-31T05:43:14;15.38;;;2.33;;
30770;SDS011;17502;51.698;-0.292;2022-10-31T05:45:40;12.43;;;2.47;;
30770;SDS011;17502;51.698;-0.292;2022-10-31T05:48:06;7.72;;;2.28;;
30770;SDS011;17502;51.698;-0.292;2022-10-31T05:50:32;16.65;;;2.58;;
30770;SDS011;17502;51.698;-0.292;2022-10-31T05:53:02;8.93;;;2.38;;
30770;SDS011;17502;51.698;-0.292;2022-10-31T05:55:29;5.38;;;1.52;;
30770;SDS011;17502;51.698;-0.292;2022-10-31T05:57:55;12.77;;;2.15;;
30770;SDS011;17502;51.698;-0.292;2022-10-31T06:00:21;11.40;;;1.77;;
30770;SDS011;17502;51.698;-0.292;2022-10-31T06:02:48;20.20;;;2.53;;
30770;SDS011;17502;51.698;-0.292;2022-10-31T06:05:14;11.75;;;1.90;;
30770;SDS011;17502;51.698;-0.292;2022-10-31T06:07:41;16.90;;;1.90;;
30770;SDS011;17502;51.698;-0.292;2022-10-31T06:10:07;4.35;;;2.25;;
30770;SDS011;17502;51.698;-0.292;2022-10-31T06:12:35;4.28;;;1.83;;
30770;SDS011;17502;51.698;-0.292;2022-10-31T06:15:03;12.27;;;1.80;;
30770;SDS011;17502;51.698;-0.292;2022-10-31T06:17:30;3.00;;;1.50;;
30770;SDS011;17502;51.698;-0.292;2022-10-31T06:19:56;9.77;;;2.08;;
30770;SDS011;17502;51.698;-0.292;2022-10-31T06:22:22;9.50;;;1.73;;
30770;SDS011;17502;51.698;-0.292;2022-10-31T06:24:48;8.30;;;1.90;;
30770;SDS011;17502;51.698;-0.292;2022-10-31T06:27:14;14.35;;;2.17;;
30770;SDS011;17502;51.698;-0.292;2022-10-31T06:29:40;12.50;;;2.28;;
30770;SDS011;17502;51.698;-0.292;2022-10-31T06:32:09;18.13;;;2.28;;
30770;SDS011;17502;51.698;-0.292;2022-10-31T06:34:35;14.85;;;2.90;;
30770;SDS011;17502;51.698;-0.292;2022-10-31T06:37:01;10.35;;;2.35;;
30770;SDS011;17502;51.698;-0.292;2022-10-31T06:39:27;12.85;;;4.40;;
30770;SDS011;17502;51.698;-0.292;2022-10-31T06:41:53;4.18;;;2.75;;
30770;SDS011;17502;51.698;-0.292;2022-10-31T06:44:19;9.48;;;2.40;;
30770;SDS011;17502;51.698;-0.292;2022-10-31T06:46:46;13.27;;;2.97;;
30770;SDS011;17502;51.698;-0.292;2022-10-31T06:49:12;13.30;;;2.65;;
30770;SDS011;17502;51.698;-0.292;2022-10-31T06:51:38;12.93;;;1.98;;
30770;SDS011;17502;51.698;-0.292;2022-10-31T06:54:07;8.40;;;2.58;;
30770;SDS011;17502;51.698;-0.292;2022-10-31T06:56:33;8.27;;;2.42;;
30770;SDS011;17502;51.698;-0.292;2022-10-31T06:58:59;16.70;;;4.63;;
30770;SDS011;17502;51.698;-0.292;2022-10-31T07:01:25;6.15;;;2.60;;
30770;SDS011;17502;51.698;-0.292;2022-10-31T07:03:51;8.98;;;2.25;;
30770;SDS011;17502;51.698;-0.292;2022-10-31T07:06:17;15.18;;;2.63;;
30770;SDS011;17502;51.698;-0.292;2022-10-31T07:08:44;16.83;;;3.42;;
30770;SDS011;17502;51.698;-0.292;2022-10-31T07:11:10;5.15;;;3.15;;
30770;SDS011;17502;51.698;-0.292;2022-10-31T07:13:35;7.15;;;2.08;;
30770;SDS011;17502;51.698;-0.292;2022-10-31T07:16:02;5.13;;;2.70;;
30770;SDS011;17502;51.698;-0.292;2022-10-31T07:18:29;12.35;;;2.05;;
30770;SDS011;17502;51.698;-0.292;2022-10-31T07:20:55;9.38;;;3.35;;
30770;SDS011;17502;51.698;-0.292;2022-10-31T07:23:21;5.82;;;1.80;;
30770;SDS011;17502;51.698;-0.292;2022-10-31T07:25:47;6.38;;;2.20;;
30770;SDS011;17502;51.698;-0.292;2022-10-31T07:28:13;10.02;;;2.13;;
30770;SDS011;17502;51.698;-0.292;2022-10-31T07:30:39;6.97;;;1.80;;
30770;SDS011;17502;51.698;-0.292;2022-10-31T07:33:05;9.52;;;1.77;;
30770;SDS011;17502;51.698;-0.292;2022-10-31T07:35:32;28.73;;;2.17;;
30770;SDS011;17502;51.698;-0.292;2022-10-31T07:38:06;3.13;;;1.70;;
30770;SDS011;17502;51.698;-0.292;2022-10-31T07:40:32;3.55;;;0.98;;
30770;SDS011;17502;51.698;-0.292;2022-10-31T07:42:58;9.88;;;1.63;;
30770;SDS011;17502;51.698;-0.292;2022-10-31T07:45:24;17.92;;;3.17;;
30770;SDS011;17502;51.698;-0.292;2022-10-31T07:47:51;2.40;;;1.35;;
30770;SDS011;17502;51.698;-0.292;2022-10-31T07:52:44;7.45;;;2.28;;
30770;SDS011;17502;51.698;-0.292;2022-10-31T07:55:10;3.75;;;1.15;;
30770;SDS011;17502;51.698;-0.292;2022-10-31T07:57:36;24.25;;;1.63;;
30770;SDS011;17502;51.698;-0.292;2022-10-31T08:00:05;6.75;;;1.77;;
30770;SDS011;17502;51.698;-0.292;2022-10-31T08:02:32;4.55;;;2.35;;
30770;SDS011;17502;51.698;-0.292;2022-10-31T08:04:58;18.92;;;2.60;;
30770;SDS011;17502;51.698;-0.292;2022-10-31T08:07:25;16.23;;;1.95;;
30770;SDS011;17502;51.698;-0.292;2022-10-31T08:09:51;2.25;;;1.20;;
30770;SDS011;17502;51.698;-0.292;2022-10-31T08:12:17;8.20;;;2.30;;
30770;SDS011;17502;51.698;-0.292;2022-10-31T08:14:43;4.20;;;2.03;;
30770;SDS011;17502;51.698;-0.292;2022-10-31T08:17:09;6.40;;;1.38;;
30770;SDS011;17502;51.698;-0.292;2022-10-31T08:19:36;13.75;;;3.67;;
30770;SDS011;17502;51.698;-0.292;2022-10-31T08:22:02;5.38;;;1.33;;
30770;SDS011;17502;51.698;-0.292;2022-10-31T08:24:28;10.63;;;2.22;;
30770;SDS011;17502;51.698;-0.292;2022-10-31T08:26:54;7.10;;;2.45;;
30770;SDS011;17502;51.698;-0.292;2022-10-31T08:29:20;5.53;;;1.55;;
30770;SDS011;17502;51.698;-0.292;2022-10-31T08:31:46;8.63;;;1.52;;
30770;SDS011;17502;51.698;-0.292;2022-10-31T08:34:12;7.15;;;2.10;;
30770;SDS011;17502;51.698;-0.292;2022-10-31T08:36:38;7.72;;;1.35;;
30770;SDS011;17502;51.698;-0.292;2022-10-31T08:39:04;19.42;;;1.90;;
30770;SDS011;17502;51.698;-0.292;2022-10-31T08:41:30;6.75;;;2.47;;
30770;SDS011;17502;51.698;-0.292;2022-10-31T08:43:56;3.05;;;1.38;;
30770;SDS011;17502;51.698;-0.292;2022-10-31T08:46:22;2.35;;;1.20;;
30770;SDS011;17502;51.698;-0.292;2022-10-31T08:48:48;9.85;;;1.48;;
30770;SDS011;17502;51.698;-0.292;2022-10-31T08:51:14;9.38;;;2.47;;
30770;SDS011;17502;51.698;-0.292;2022-10-31T08:53:40;2.05;;;1.00;;
30770;SDS011;17502;51.698;-0.292;2022-10-31T08:56:06;3.47;;;1.48;;
30770;SDS011;17502;51.698;-0.292;2022-10-31T08:58:32;3.03;;;0.95;;
30770;SDS011;17502;51.698;-0.292;2022-10-31T09:00:59;12.00;;;1.60;;
30770;SDS011;17502;51.698;-0.292;2022-10-31T09:03:26;2.22;;;0.93;;
30770;SDS011;17502;51.698;-0.292;2022-10-31T09:05:56;5.88;;;1.20;;
30770;SDS011;17502;51.698;-0.292;2022-10-31T09:08:23;13.32;;;1.17;;
30770;SDS011;17502;51.698;-0.292;2022-10-31T09:10:49;1.80;;;1.05;;
30770;SDS011;17502;51.698;-0.292;2022-10-31T09:13:16;7.45;;;1.38;;
30770;SDS011;17502;51.698;-0.292;2022-10-31T09:15:43;7.22;;;1.40;;
30770;SDS011;17502;51.698;-0.292;2022-10-31T09:18:09;15.20;;;2.40;;
30770;SDS011;17502;51.698;-0.292;2022-10-31T09:20:36;12.75;;;1.58;;
30770;SDS011;17502;51.698;-0.292;2022-10-31T09:23:06;6.90;;;1.65;;
30770;SDS011;17502;51.698;-0.292;2022-10-31T09:25:33;6.30;;;1.33;;
30770;SDS011;17502;51.698;-0.292;2022-10-31T09:28:00;5.68;;;1.35;;
30770;SDS011;17502;51.698;-0.292;2022-10-31T09:30:27;11.45;;;1.38;;
30770;SDS011;17502;51.698;-0.292;2022-10-31T09:32:54;9.95;;;1.40;;
30770;SDS011;17502;51.698;-0.292;2022-10-31T09:35:21;8.88;;;1.98;;
30770;SDS011;17502;51.698;-0.292;2022-10-31T09:37:47;6.72;;;1.55;;
30770;SDS011;17502;51.698;-0.292;2022-10-31T09:40:13;6.20;;;0.93;;
30770;SDS011;17502;51.698;-0.292;2022-10-31T09:43:00;10.68;;;1.15;;
30770;SDS011;17502;51.698;-0.292;2022-10-31T09:45:35;4.32;;;2.33;;
30770;SDS011;17502;51.698;-0.292;2022-10-31T09:50:31;7.32;;;0.65;;
30770;SDS011;17502;51.698;-0.292;2022-10-31T09:53:01;14.98;;;2.88;;
30770;SDS011;17502;51.698;-0.292;2022-10-31T09:55:41;6.85;;;1.30;;
30770;SDS011;17502;51.698;-0.292;2022-10-31T09:58:12;16.27;;;1.55;;
30770;SDS011;17502;51.698;-0.292;2022-10-31T10:00:39;3.05;;;1.20;;
30770;SDS011;17502;51.698;-0.292;2022-10-31T10:05:43;3.70;;;1.25;;
30770;SDS011;17502;51.698;-0.292;2022-10-31T10:18:20;10.45;;;1.25;;
30770;SDS011;17502;51.698;-0.292;2022-10-31T10:23:23;8.77;;;1.73;;
30770;SDS011;17502;51.698;-0.292;2022-10-31T10:25:58;15.63;;;1.92;;
30770;SDS011;17502;51.698;-0.292;2022-10-31T10:28:30;4.57;;;0.93;;
30770;SDS011;17502;51.698;-0.292;2022-10-31T10:31:22;13.90;;;1.00;;
30770;SDS011;17502;51.698;-0.292;2022-10-31T10:36:31;4.07;;;1.35;;
30770;SDS011;17502;51.698;-0.292;2022-10-31T10:39:04;4.03;;;0.93;;
30770;SDS011;17502;51.698;-0.292;2022-10-31T10:41:31;2.72;;;1.00;;
30770;SDS011;17502;51.698;-0.292;2022-10-31T10:43:57;6.22;;;0.85;;
30770;SDS011;17502;51.698;-0.292;2022-10-31T10:49:44;5.13;;;0.80;;
30770;SDS011;17502;51.698;-0.292;2022-10-31T10:59:45;7.32;;;1.48;;
30770;SDS011;17502;51.698;-0.292;2022-10-31T11:02:27;4.35;;;1.25;;
30770;SDS011;17502;51.698;-0.292;2022-10-31T11:04:54;10.07;;;1.15;;
30770;SDS011;17502;51.698;-0.292;2022-10-31T11:07:20;3.92;;;0.95;;
30770;SDS011;17502;51.698;-0.292;2022-10-31T11:09:47;3.20;;;0.60;;
30770;SDS011;17502;51.698;-0.292;2022-10-31T11:12:19;8.40;;;1.30;;
30770;SDS011;17502;51.698;-0.292;2022-10-31T11:14:50;2.20;;;1.05;;
30770;SDS011;17502;51.698;-0.292;2022-10-31T11:17:20;4.15;;;0.95;;
30770;SDS011;17502;51.698;-0.292;2022-10-31T11:19:48;10.57;;;0.90;;
30770;SDS011;17502;51.698;-0.292;2022-10-31T11:22:24;2.03;;;1.08;;
30770;SDS011;17502;51.698;-0.292;2022-10-31T11:24:50;5.28;;;1.20;;
30770;SDS011;17502;51.698;-0.292;2022-10-31T11:27:20;0.52;;;0.52;;
30770;SDS011;17502;51.698;-0.292;2022-10-31T11:29:47;4.10;;;1.33;;
30770;SDS011;17502;51.698;-0.292;2022-10-31T11:32:21;1.95;;;1.02;;
30770;SDS011;17502;51.698;-0.292;2022-10-31T11:34:54;10.32;;;1.30;;
30770;SDS011;17502;51.698;-0.292;2022-10-31T11:37:31;4.22;;;0.40;;
30770;SDS011;17502;51.698;-0.292;2022-10-31T11:40:00;2.58;;;1.02;;
30770;SDS011;17502;51.698;-0.292;2022-10-31T11:42:27;2.58;;;1.20;;
30770;SDS011;17502;51.698;-0.292;2022-10-31T11:44:54;5.78;;;1.77;;
30770;SDS011;17502;51.698;-0.292;2022-10-31T11:47:25;9.13;;;1.02;;
30770;SDS011;17502;51.698;-0.292;2022-10-31T11:49:51;5.78;;;0.85;;
30770;SDS011;17502;51.698;-0.292;2022-10-31T11:52:25;10.85;;;0.65;;
30770;SDS011;17502;51.698;-0.292;2022-10-31T11:54:53;3.35;;;0.68;;
30770;SDS011;17502;51.698;-0.292;2022-10-31T11:57:30;9.23;;;1.50;;
30770;SDS011;17502;51.698;-0.292;2022-10-31T11:59:57;3.78;;;1.52;;
30770;SDS011;17502;51.698;-0.292;2022-10-31T12:02:24;1.27;;;0.55;;
30770;SDS011;17502;51.698;-0.292;2022-10-31T12:04:52;1.55;;;0.80;;
30770;SDS011;17502;51.698;-0.292;2022-10-31T12:07:21;10.50;;;1.33;;
30770;SDS011;17502;51.698;-0.292;2022-10-31T12:09:47;6.72;;;1.63;;
30770;SDS011;17502;51.698;-0.292;2022-10-31T12:17:19;4.05;;;0.85;;
30770;SDS011;17502;51.698;-0.292;2022-10-31T12:30:11;3.63;;;1.15;;
30770;SDS011;17502;51.698;-0.292;2022-10-31T12:32:48;6.10;;;0.97;;
30770;SDS011;17502;51.698;-0.292;2022-10-31T12:40:31;0.75;;;0.57;;
30770;SDS011;17502;51.698;-0.292;2022-10-31T12:43:05;3.80;;;1.13;;
30770;SDS011;17502;51.698;-0.292;2022-10-31T12:45:36;4.97;;;1.02;;
30770;SDS011;17502;51.698;-0.292;2022-10-31T12:48:10;2.72;;;1.02;;
30770;SDS011;17502;51.698;-0.292;2022-10-31T12:50:47;1.17;;;0.85;;
30770;SDS011;17502;51.698;-0.292;2022-10-31T12:59:07;0.98;;;0.90;;
30770;SDS011;17502;51.698;-0.292;2022-10-31T13:01:30;5.72;;;1.00;;
30770;SDS011;17502;51.698;-0.292;2022-10-31T13:04:02;3.63;;;0.73;;
30770;SDS011;17502;51.698;-0.292;2022-10-31T13:06:33;1.38;;;0.73;;
30770;SDS011;17502;51.698;-0.292;2022-10-31T13:09:02;0.60;;;0.60;;
30770;SDS011;17502;51.698;-0.292;2022-10-31T13:16:31;1.38;;;0.85;;
30770;SDS011;17502;51.698;-0.292;2022-10-31T13:19:00;1.55;;;1.10;;
30770;SDS011;17502;51.698;-0.292;2022-10-31T13:21:28;2.40;;;0.80;;
30770;SDS011;17502;51.698;-0.292;2022-10-31T13:23:57;1.90;;;0.40;;
30770;SDS011;17502;51.698;-0.292;2022-10-31T13:29:00;1.08;;;0.80;;
30770;SDS011;17502;51.698;-0.292;2022-10-31T13:31:29;1.95;;;0.65;;
30770;SDS011;17502;51.698;-0.292;2022-10-31T13:33:57;10.73;;;1.08;;
30770;SDS011;17502;51.698;-0.292;2022-10-31T13:38:58;2.00;;;0.80;;
30770;SDS011;17502;51.698;-0.292;2022-10-31T13:44:17;4.32;;;1.08;;
30770;SDS011;17502;51.698;-0.292;2022-10-31T13:46:44;2.10;;;1.38;;
30770;SDS011;17502;51.698;-0.292;2022-10-31T13:49:35;0.95;;;0.40;;
30770;SDS011;17502;51.698;-0.292;2022-10-31T13:54:38;6.70;;;0.70;;
30770;SDS011;17502;51.698;-0.292;2022-10-31T13:59:56;1.95;;;0.73;;
30770;SDS011;17502;51.698;-0.292;2022-10-31T14:02:30;7.63;;;0.82;;
30770;SDS011;17502;51.698;-0.292;2022-10-31T14:04:58;1.70;;;0.70;;
30770;SDS011;17502;51.698;-0.292;2022-10-31T14:07:25;1.35;;;0.55;;
30770;SDS011;17502;51.698;-0.292;2022-10-31T14:12:27;4.45;;;1.65;;
30770;SDS011;17502;51.698;-0.292;2022-10-31T14:14:59;2.22;;;0.77;;
30770;SDS011;17502;51.698;-0.292;2022-10-31T14:17:29;2.00;;;1.20;;
30770;SDS011;17502;51.698;-0.292;2022-10-31T14:22:31;2.42;;;0.98;;
30770;SDS011;17502;51.698;-0.292;2022-10-31T14:24:57;2.97;;;0.50;;
30770;SDS011;17502;51.698;-0.292;2022-10-31T14:29:53;0.98;;;0.65;;
30770;SDS011;17502;51.698;-0.292;2022-10-31T14:32:23;0.60;;;0.60;;
30770;SDS011;17502;51.698;-0.292;2022-10-31T14:37:20;8.75;;;1.27;;
30770;SDS011;17502;51.698;-0.292;2022-10-31T14:42:37;1.70;;;1.25;;
30770;SDS011;17502;51.698;-0.292;2022-10-31T14:45:11;1.13;;;0.65;;
30770;SDS011;17502;51.698;-0.292;2022-10-31T14:52:41;3.67;;;1.08;;
30770;SDS011;17502;51.698;-0.292;2022-10-31T14:55:11;3.60;;;2.08;;
30770;SDS011;17502;51.698;-0.292;2022-10-31T14:57:38;8.15;;;0.98;;
30770;SDS011;17502;51.698;-0.292;2022-10-31T15:00:06;3.50;;;0.90;;
30770;SDS011;17502;51.698;-0.292;2022-10-31T15:05:03;3.25;;;1.02;;
30770;SDS011;17502;51.698;-0.292;2022-10-31T15:07:32;2.05;;;1.52;;
30770;SDS011;17502;51.698;-0.292;2022-10-31T15:10:02;4.78;;;0.85;;
30770;SDS011;17502;51.698;-0.292;2022-10-31T15:12:30;1.13;;;0.80;;
30770;SDS011;17502;51.698;-0.292;2022-10-31T15:14:56;4.30;;;0.90;;
30770;SDS011;17502;51.698;-0.292;2022-10-31T15:17:23;5.45;;;1.30;;
30770;SDS011;17502;51.698;-0.292;2022-10-31T15:19:50;2.30;;;1.15;;
30770;SDS011;17502;51.698;-0.292;2022-10-31T15:22:17;9.60;;;1.30;;
30770;SDS011;17502;51.698;-0.292;2022-10-31T15:24:44;4.15;;;1.10;;
30770;SDS011;17502;51.698;-0.292;2022-10-31T15:27:17;1.40;;;0.70;;
30770;SDS011;17502;51.698;-0.292;2022-10-31T15:32:28;2.63;;;1.95;;
30770;SDS011;17502;51.698;-0.292;2022-10-31T15:34:55;4.00;;;1.20;;
30770;SDS011;17502;51.698;-0.292;2022-10-31T15:37:22;3.17;;;1.38;;
30770;SDS011;17502;51.698;-0.292;2022-10-31T15:39:50;3.58;;;1.63;;
30770;SDS011;17502;51.698;-0.292;2022-10-31T15:44:42;3.15;;;1.35;;
30770;SDS011;17502;51.698;-0.292;2022-10-31T15:47:18;8.30;;;1.02;;
30770;SDS011;17502;51.698;-0.292;2022-10-31T15:49:49;1.25;;;0.90;;
30770;SDS011;17502;51.698;-0.292;2022-10-31T15:54:44;2.67;;;1.92;;
30770;SDS011;17502;51.698;-0.292;2022-10-31T15:57:11;14.18;;;1.13;;
30770;SDS011;17502;51.698;-0.292;2022-10-31T15:59:37;4.70;;;1.70;;
30770;SDS011;17502;51.698;-0.292;2022-10-31T16:02:10;5.57;;;1.23;;
30770;SDS011;17502;51.698;-0.292;2022-10-31T16:04:36;1.33;;;1.05;;
30770;SDS011;17502;51.698;-0.292;2022-10-31T16:07:12;4.32;;;0.80;;
30770;SDS011;17502;51.698;-0.292;2022-10-31T16:12:44;0.55;;;0.45;;
30770;SDS011;17502;51.698;-0.292;2022-10-31T16:15:14;2.38;;;0.63;;
30770;SDS011;17502;51.698;-0.292;2022-10-31T16:17:41;8.73;;;1.38;;
30770;SDS011;17502;51.698;-0.292;2022-10-31T16:20:16;0.95;;;0.82;;
30770;SDS011;17502;51.698;-0.292;2022-10-31T16:22:46;5.18;;;0.93;;
30770;SDS011;17502;51.698;-0.292;2022-10-31T16:25:15;6.50;;;1.23;;
30770;SDS011;17502;51.698;-0.292;2022-10-31T16:27:47;1.65;;;0.95;;
30770;SDS011;17502;51.698;-0.292;2022-10-31T16:30:35;7.85;;;1.00;;
30770;SDS011;17502;51.698;-0.292;2022-10-31T16:33:03;7.90;;;1.33;;
30770;SDS011;17502;51.698;-0.292;2022-10-31T16:35:33;5.03;;;1.08;;
30770;SDS011;17502;51.698;-0.292;2022-10-31T16:37:59;5.82;;;0.80;;
30770;SDS011;17502;51.698;-0.292;2022-10-31T16:40:25;3.60;;;1.10;;
30770;SDS011;17502;51.698;-0.292;2022-10-31T16:42:52;3.17;;;0.93;;
30770;SDS011;17502;51.698;-0.292;2022-10-31T16:45:22;2.33;;;1.02;;
30770;SDS011;17502;51.698;-0.292;2022-10-31T16:47:48;4.53;;;0.80;;
30770;SDS011;17502;51.698;-0.292;2022-10-31T16:50:18;6.20;;;1.30;;
30770;SDS011;17502;51.698;-0.292;2022-10-31T16:52:45;12.38;;;2.03;;
30770;SDS011;17502;51.698;-0.292;2022-10-31T16:55:15;3.22;;;2.15;;
30770;SDS011;17502;51.698;-0.292;2022-10-31T16:57:45;8.43;;;0.85;;
30770;SDS011;17502;51.698;-0.292;2022-10-31T17:00:12;1.83;;;1.17;;
30770;SDS011;17502;51.698;-0.292;2022-10-31T17:02:39;4.90;;;1.17;;